sensor_id;sensor_type;location;lat;lon;timestamp;pressure;altitude;pressure_sealevel;temperature;humidity
34328;BME280;20588;48.840;10.064;2023-01-25T00:02:26;98028.69;;;2.05;nan
34328;BME280;20588;48.840;10.064;2023-01-25T00:04:52;98026.63;;;2.10;nan
34328;BME280;20588;48.840;10.064;2023-01-25T00:07:18;98024.56;;;2.04;nan
34328;BME280;20588;48.840;10.064;2023-01-25T00:09:44;98025.69;;;2.00;nan
34328;BME280;20588;48.840;10.064;2023-01-25T00:12:10;98014.53;;;2.03;nan
34328;BME280;20588;48.840;10.064;2023-01-25T00:14:36;98017.84;;;2.03;nan
34328;BME280;20588;48.840;10.064;2023-01-25T00:17:02;98014.72;;;2.11;nan
34328;BME280;20588;48.840;10.064;2023-01-25T00:19:28;98021.28;;;2.13;nan
34328;BME280;20588;48.840;10.064;2023-01-25T00:21:54;98029.38;;;2.07;nan
34328;BME280;20588;48.840;10.064;2023-01-25T00:24:20;98024.63;;;2.14;nan
34328;BME280;20588;48.840;10.064;2023-01-25T00:26:48;98025.78;;;2.10;nan
34328;BME280;20588;48.840;10.064;2023-01-25T00:29:14;98020.03;;;2.08;nan
34328;BME280;20588;48.840;10.064;2023-01-25T00:34:38;98025.06;;;2.19;nan
34328;BME280;20588;48.840;10.064;2023-01-25T00:37:18;98019.41;;;2.15;nan
34328;BME280;20588;48.840;10.064;2023-01-25T00:39:46;98022.31;;;2.11;nan
34328;BME280;20588;48.840;10.064;2023-01-25T00:42:13;98012.63;;;2.16;nan
34328;BME280;20588;48.840;10.064;2023-01-25T00:44:39;98019.41;;;2.15;nan
34328;BME280;20588;48.840;10.064;2023-01-25T00:47:06;98013.56;;;2.15;nan
34328;BME280;20588;48.840;10.064;2023-01-25T00:49:32;98012.97;;;2.11;nan
34328;BME280;20588;48.840;10.064;2023-01-25T00:51:59;98016.13;;;2.04;nan
34328;BME280;20588;48.840;10.064;2023-01-25T00:54:25;98006.44;;;1.98;nan
34328;BME280;20588;48.840;10.064;2023-01-25T00:56:51;98009.81;;;1.87;nan
34328;BME280;20588;48.840;10.064;2023-01-25T00:59:19;98009.59;;;1.90;nan
34328;BME280;20588;48.840;10.064;2023-01-25T01:01:45;98008.41;;;1.94;nan
34328;BME280;20588;48.840;10.064;2023-01-25T01:04:11;98016.94;;;2.04;nan
34328;BME280;20588;48.840;10.064;2023-01-25T01:06:38;98017.28;;;2.00;nan
34328;BME280;20588;48.840;10.064;2023-01-25T01:09:06;98015.78;;;1.97;nan
34328;BME280;20588;48.840;10.064;2023-01-25T01:11:33;98015.44;;;2.02;nan
34328;BME280;20588;48.840;10.064;2023-01-25T01:13:59;98015.34;;;1.92;nan
34328;BME280;20588;48.840;10.064;2023-01-25T01:16:26;98019.88;;;1.77;nan
34328;BME280;20588;48.840;10.064;2023-01-25T01:18:52;98011.25;;;1.69;nan
34328;BME280;20588;48.840;10.064;2023-01-25T01:21:18;98013.91;;;1.67;nan
34328;BME280;20588;48.840;10.064;2023-01-25T01:23:44;98009.75;;;1.66;nan
34328;BME280;20588;48.840;10.064;2023-01-25T01:26:13;98012.19;;;1.57;nan
34328;BME280;20588;48.840;10.064;2023-01-25T01:28:39;98008.72;;;1.58;nan
34328;BME280;20588;48.840;10.064;2023-01-25T01:31:14;98017.25;;;1.57;nan
34328;BME280;20588;48.840;10.064;2023-01-25T01:33:40;98009.31;;;1.61;nan
34328;BME280;20588;48.840;10.064;2023-01-25T01:36:15;98007.66;;;1.82;nan
34328;BME280;20588;48.840;10.064;2023-01-25T01:38:42;98008.72;;;1.69;nan
34328;BME280;20588;48.840;10.064;2023-01-25T01:41:09;98009.53;;;1.69;nan
34328;BME280;20588;48.840;10.064;2023-01-25T01:43:36;98013.66;;;1.70;nan
34328;BME280;20588;48.840;10.064;2023-01-25T01:46:05;98014.47;;;1.71;nan
34328;BME280;20588;48.840;10.064;2023-01-25T01:48:39;98013.56;;;1.61;nan
34328;BME280;20588;48.840;10.064;2023-01-25T01:51:17;98014.59;;;1.58;nan
34328;BME280;20588;48.840;10.064;2023-01-25T01:57:07;98014.59;;;1.69;nan
34328;BME280;20588;48.840;10.064;2023-01-25T01:59:30;98015.38;;;1.70;nan
34328;BME280;20588;48.840;10.064;2023-01-25T02:01:58;98012.97;;;1.68;nan
34328;BME280;20588;48.840;10.064;2023-01-25T02:04:26;98004.22;;;1.61;nan
34328;BME280;20588;48.840;10.064;2023-01-25T02:07:05;98005.03;;;1.62;nan
34328;BME280;20588;48.840;10.064;2023-01-25T02:09:35;98001.56;;;1.63;nan
34328;BME280;20588;48.840;10.064;2023-01-25T02:12:03;97994.06;;;1.72;nan
34328;BME280;20588;48.840;10.064;2023-01-25T02:14:30;97992.44;;;1.71;nan
34328;BME280;20588;48.840;10.064;2023-01-25T02:16:56;97999.38;;;1.58;nan
34328;BME280;20588;48.840;10.064;2023-01-25T02:22:10;98006.31;;;1.56;nan
34328;BME280;20588;48.840;10.064;2023-01-25T02:24:39;98003.31;;;1.51;nan
34328;BME280;20588;48.840;10.064;2023-01-25T02:27:07;97999.97;;;1.62;nan
34328;BME280;20588;48.840;10.064;2023-01-25T02:29:34;98001.56;;;1.63;nan
34328;BME280;20588;48.840;10.064;2023-01-25T02:32:05;98000.56;;;1.54;nan
34328;BME280;20588;48.840;10.064;2023-01-25T02:34:31;98003.75;;;1.56;nan
34328;BME280;20588;48.840;10.064;2023-01-25T02:36:57;98000.56;;;1.54;nan
34328;BME280;20588;48.840;10.064;2023-01-25T02:39:24;97999.75;;;1.54;nan
34328;BME280;20588;48.840;10.064;2023-01-25T02:41:52;97989.00;;;1.61;nan
34328;BME280;20588;48.840;10.064;2023-01-25T02:44:26;97989.00;;;1.61;nan
34328;BME280;20588;48.840;10.064;2023-01-25T02:46:52;97983.94;;;1.61;nan
34328;BME280;20588;48.840;10.064;2023-01-25T02:49:19;97981.63;;;1.58;nan
34328;BME280;20588;48.840;10.064;2023-01-25T02:51:50;97989.38;;;1.57;nan
34328;BME280;20588;48.840;10.064;2023-01-25T02:54:20;97987.75;;;1.56;nan
34328;BME280;20588;48.840;10.064;2023-01-25T02:56:47;97988.56;;;1.56;nan
34328;BME280;20588;48.840;10.064;2023-01-25T02:59:14;97986.13;;;1.55;nan
34328;BME280;20588;48.840;10.064;2023-01-25T03:01:41;97981.28;;;1.52;nan
34328;BME280;20588;48.840;10.064;2023-01-25T03:04:08;97979.91;;;1.59;nan
34328;BME280;20588;48.840;10.064;2023-01-25T03:06:35;97971.84;;;1.54;nan
34328;BME280;20588;48.840;10.064;2023-01-25T03:09:02;97970.56;;;1.59;nan
34328;BME280;20588;48.840;10.064;2023-01-25T03:11:28;97971.63;;;1.57;nan
34328;BME280;20588;48.840;10.064;2023-01-25T03:13:54;97969.97;;;1.67;nan
34328;BME280;20588;48.840;10.064;2023-01-25T03:16:20;97967.59;;;1.54;nan
34328;BME280;20588;48.840;10.064;2023-01-25T03:18:47;97971.84;;;1.54;nan
34328;BME280;20588;48.840;10.064;2023-01-25T03:21:16;97966.91;;;1.52;nan
34328;BME280;20588;48.840;10.064;2023-01-25T03:23:43;97965.25;;;1.62;nan
34328;BME280;20588;48.840;10.064;2023-01-25T03:26:18;97968.13;;;1.69;nan
34328;BME280;20588;48.840;10.064;2023-01-25T03:28:45;97963.53;;;1.63;nan
34328;BME280;20588;48.840;10.064;2023-01-25T03:31:13;97959.69;;;1.68;nan
34328;BME280;20588;48.840;10.064;2023-01-25T03:33:40;97963.53;;;1.63;nan
34328;BME280;20588;48.840;10.064;2023-01-25T03:36:08;97954.44;;;1.60;nan
34328;BME280;20588;48.840;10.064;2023-01-25T03:38:34;97943.13;;;1.64;nan
34328;BME280;20588;48.840;10.064;2023-01-25T03:41:01;97935.41;;;1.55;nan
34328;BME280;20588;48.840;10.064;2023-01-25T03:43:28;97939.94;;;1.51;nan
34328;BME280;20588;48.840;10.064;2023-01-25T03:45:56;97939.28;;;1.70;nan
34328;BME280;20588;48.840;10.064;2023-01-25T03:48:23;97947.84;;;1.58;nan
34328;BME280;20588;48.840;10.064;2023-01-25T03:50:51;97950.50;;;1.56;nan
34328;BME280;20588;48.840;10.064;2023-01-25T03:53:18;97953.41;;;1.52;nan
34328;BME280;20588;48.840;10.064;2023-01-25T03:55:59;97951.91;;;1.60;nan
34328;BME280;20588;48.840;10.064;2023-01-25T03:58:27;97946.25;;;1.57;nan
34328;BME280;20588;48.840;10.064;2023-01-25T04:00:58;97947.09;;;1.46;nan
34328;BME280;20588;48.840;10.064;2023-01-25T04:03:24;97942.59;;;1.39;nan
34328;BME280;20588;48.840;10.064;2023-01-25T04:05:51;97935.34;;;1.34;nan
34328;BME280;20588;48.840;10.064;2023-01-25T04:08:17;97942.84;;;1.36;nan
34328;BME280;20588;48.840;10.064;2023-01-25T04:10:48;97936.94;;;1.35;nan
34328;BME280;20588;48.840;10.064;2023-01-25T04:13:14;97933.25;;;1.39;nan
34328;BME280;20588;48.840;10.064;2023-01-25T04:15:40;97936.13;;;1.35;nan
34328;BME280;20588;48.840;10.064;2023-01-25T04:18:06;97932.59;;;1.37;nan
34328;BME280;20588;48.840;10.064;2023-01-25T04:20:32;97931.41;;;1.30;nan
34328;BME280;20588;48.840;10.064;2023-01-25T04:22:58;97931.41;;;1.30;nan
34328;BME280;20588;48.840;10.064;2023-01-25T04:25:24;97927.53;;;1.26;nan
34328;BME280;20588;48.840;10.064;2023-01-25T04:27:50;97920.63;;;1.28;nan
34328;BME280;20588;48.840;10.064;2023-01-25T04:30:16;97924.97;;;1.26;nan
34328;BME280;20588;48.840;10.064;2023-01-25T04:32:42;97916.56;;;1.26;nan
34328;BME280;20588;48.840;10.064;2023-01-25T04:35:09;97924.41;;;1.34;nan
34328;BME280;20588;48.840;10.064;2023-01-25T04:37:35;97929.94;;;1.28;nan
34328;BME280;20588;48.840;10.064;2023-01-25T04:40:01;97917.59;;;1.34;nan
34328;BME280;20588;48.840;10.064;2023-01-25T04:42:27;97915.97;;;1.33;nan
34328;BME280;20588;48.840;10.064;2023-01-25T04:44:53;97914.50;;;1.31;nan
34328;BME280;20588;48.840;10.064;2023-01-25T04:47:19;97919.69;;;1.29;nan
34328;BME280;20588;48.840;10.064;2023-01-25T04:49:45;97909.53;;;1.29;nan
34328;BME280;20588;48.840;10.064;2023-01-25T04:52:11;97913.25;;;1.25;nan
34328;BME280;20588;48.840;10.064;2023-01-25T04:54:37;97897.81;;;1.28;nan
34328;BME280;20588;48.840;10.064;2023-01-25T04:57:03;97898.81;;;1.26;nan
34328;BME280;20588;48.840;10.064;2023-01-25T04:59:29;97897.34;;;1.23;nan
34328;BME280;20588;48.840;10.064;2023-01-25T05:01:55;97904.00;;;1.24;nan
34328;BME280;20588;48.840;10.064;2023-01-25T05:04:21;97901.47;;;1.35;nan
34328;BME280;20588;48.840;10.064;2023-01-25T05:06:47;97897.44;;;1.33;nan
34328;BME280;20588;48.840;10.064;2023-01-25T05:09:13;97896.63;;;1.32;nan
34328;BME280;20588;48.840;10.064;2023-01-25T05:11:40;97898.69;;;1.27;nan
34328;BME280;20588;48.840;10.064;2023-01-25T05:14:06;97897.69;;;1.30;nan
34328;BME280;20588;48.840;10.064;2023-01-25T05:16:32;97901.00;;;1.30;nan
34328;BME280;20588;48.840;10.064;2023-01-25T05:18:58;97896.63;;;1.32;nan
34328;BME280;20588;48.840;10.064;2023-01-25T05:21:24;97896.00;;;1.51;nan
34328;BME280;20588;48.840;10.064;2023-01-25T05:24:09;97900.28;;;1.50;nan
34328;BME280;20588;48.840;10.064;2023-01-25T05:26:35;97907.47;;;1.34;nan
34328;BME280;20588;48.840;10.064;2023-01-25T05:29:20;97905.00;;;1.44;nan
34328;BME280;20588;48.840;10.064;2023-01-25T05:31:46;97896.25;;;1.48;nan
34328;BME280;20588;48.840;10.064;2023-01-25T05:34:12;97901.91;;;1.40;nan
34328;BME280;20588;48.840;10.064;2023-01-25T05:36:38;97891.31;;;1.46;nan
34328;BME280;20588;48.840;10.064;2023-01-25T05:39:05;97896.72;;;1.42;nan
34328;BME280;20588;48.840;10.064;2023-01-25T05:41:31;97895.22;;;1.39;nan
34328;BME280;20588;48.840;10.064;2023-01-25T05:43:57;97891.91;;;1.39;nan
34328;BME280;20588;48.840;10.064;2023-01-25T05:46:23;97895.81;;;1.32;nan
34328;BME280;20588;48.840;10.064;2023-01-25T05:48:51;97885.56;;;1.33;nan
34328;BME280;20588;48.840;10.064;2023-01-25T05:51:17;97889.16;;;1.31;nan
34328;BME280;20588;48.840;10.064;2023-01-25T05:53:43;97887.19;;;1.34;nan
34328;BME280;20588;48.840;10.064;2023-01-25T05:56:09;97882.31;;;1.42;nan
34328;BME280;20588;48.840;10.064;2023-01-25T05:58:36;97877.72;;;1.36;nan
34328;BME280;20588;48.840;10.064;2023-01-25T06:01:04;97881.19;;;1.35;nan
34328;BME280;20588;48.840;10.064;2023-01-25T06:03:30;97876.59;;;1.29;nan
34328;BME280;20588;48.840;10.064;2023-01-25T06:05:58;97879.13;;;1.29;nan
34328;BME280;20588;48.840;10.064;2023-01-25T06:08:26;97875.22;;;1.25;nan
34328;BME280;20588;48.840;10.064;2023-01-25T06:10:52;97874.19;;;1.28;nan
34328;BME280;20588;48.840;10.064;2023-01-25T06:13:19;97878.44;;;1.27;nan
34328;BME280;20588;48.840;10.064;2023-01-25T06:15:55;97868.84;;;1.42;nan
34328;BME280;20588;48.840;10.064;2023-01-25T06:18:22;97865.16;;;1.35;nan
34328;BME280;20588;48.840;10.064;2023-01-25T06:20:51;97856.56;;;1.58;nan
34328;BME280;20588;48.840;10.064;2023-01-25T06:23:17;97861.22;;;1.53;nan
34328;BME280;20588;48.840;10.064;2023-01-25T06:25:43;97863.66;;;1.43;nan
34328;BME280;20588;48.840;10.064;2023-01-25T06:28:09;97864.44;;;1.44;nan
34328;BME280;20588;48.840;10.064;2023-01-25T06:30:35;97861.34;;;1.40;nan
34328;BME280;20588;48.840;10.064;2023-01-25T06:33:01;97855.69;;;1.48;nan
34328;BME280;20588;48.840;10.064;2023-01-25T06:35:29;97858.47;;;1.45;nan
34328;BME280;20588;48.840;10.064;2023-01-25T06:37:56;97866.81;;;1.56;nan
34328;BME280;20588;48.840;10.064;2023-01-25T06:40:22;97865.81;;;1.59;nan
34328;BME280;20588;48.840;10.064;2023-01-25T06:42:48;97856.03;;;1.54;nan
34328;BME280;20588;48.840;10.064;2023-01-25T06:45:14;97856.94;;;1.42;nan
34328;BME280;20588;48.840;10.064;2023-01-25T06:47:40;97869.19;;;1.37;nan
34328;BME280;20588;48.840;10.064;2023-01-25T06:50:07;97871.97;;;1.34;nan
34328;BME280;20588;48.840;10.064;2023-01-25T06:52:34;97861.59;;;1.37;nan
34328;BME280;20588;48.840;10.064;2023-01-25T06:55:02;97863.56;;;1.34;nan
34328;BME280;20588;48.840;10.064;2023-01-25T06:57:28;97865.03;;;1.36;nan
34328;BME280;20588;48.840;10.064;2023-01-25T06:59:54;97864.00;;;1.39;nan
34328;BME280;20588;48.840;10.064;2023-01-25T07:02:20;97870.94;;;1.37;nan
34328;BME280;20588;48.840;10.064;2023-01-25T07:04:46;97872.66;;;1.36;nan
34328;BME280;20588;48.840;10.064;2023-01-25T07:07:13;97869.63;;;1.42;nan
34328;BME280;20588;48.840;10.064;2023-01-25T07:09:39;97860.28;;;1.54;nan
34328;BME280;20588;48.840;10.064;2023-01-25T07:12:05;97863.28;;;1.48;nan
34328;BME280;20588;48.840;10.064;2023-01-25T07:14:31;97860.09;;;1.35;nan
34328;BME280;20588;48.840;10.064;2023-01-25T07:16:58;97869.06;;;1.50;nan
34328;BME280;20588;48.840;10.064;2023-01-25T07:19:24;97860.75;;;1.79;nan
34328;BME280;20588;48.840;10.064;2023-01-25T07:21:50;97855.34;;;1.73;nan
34328;BME280;20588;48.840;10.064;2023-01-25T07:24:18;97849.25;;;1.75;nan
34328;BME280;20588;48.840;10.064;2023-01-25T07:26:51;97847.13;;;1.60;nan
34328;BME280;20588;48.840;10.064;2023-01-25T07:29:17;97849.81;;;1.47;nan
34328;BME280;20588;48.840;10.064;2023-01-25T07:31:43;97844.41;;;1.41;nan
34328;BME280;20588;48.840;10.064;2023-01-25T07:34:11;97838.66;;;1.39;nan
34328;BME280;20588;48.840;10.064;2023-01-25T07:36:39;97837.72;;;1.40;nan
34328;BME280;20588;48.840;10.064;2023-01-25T07:39:06;97846.38;;;1.48;nan
34328;BME280;20588;48.840;10.064;2023-01-25T07:41:35;97837.00;;;1.49;nan
34328;BME280;20588;48.840;10.064;2023-01-25T07:44:01;97847.16;;;1.49;nan
34328;BME280;20588;48.840;10.064;2023-01-25T07:46:27;97844.97;;;1.44;nan
34328;BME280;20588;48.840;10.064;2023-01-25T07:48:54;97848.31;;;1.45;nan
34328;BME280;20588;48.840;10.064;2023-01-25T07:51:21;97849.66;;;1.80;nan
34328;BME280;20588;48.840;10.064;2023-01-25T07:53:49;97852.06;;;1.61;nan
34328;BME280;20588;48.840;10.064;2023-01-25T07:56:17;97843.75;;;1.59;nan
34328;BME280;20588;48.840;10.064;2023-01-25T07:58:44;97849.81;;;1.47;nan
34328;BME280;20588;48.840;10.064;2023-01-25T08:01:16;97847.28;;;1.36;nan
34328;BME280;20588;48.840;10.064;2023-01-25T08:03:43;97839.56;;;1.38;nan
34328;BME280;20588;48.840;10.064;2023-01-25T08:06:09;97842.81;;;1.40;nan
34328;BME280;20588;48.840;10.064;2023-01-25T08:08:41;97842.44;;;1.44;nan
34328;BME280;20588;48.840;10.064;2023-01-25T08:11:22;97842.66;;;1.52;nan
34328;BME280;20588;48.840;10.064;2023-01-25T08:13:48;97838.50;;;1.51;nan
34328;BME280;20588;48.840;10.064;2023-01-25T08:16:20;97841.72;;;1.53;nan
34328;BME280;20588;48.840;10.064;2023-01-25T08:18:51;97837.22;;;1.57;nan
34328;BME280;20588;48.840;10.064;2023-01-25T08:21:17;97838.81;;;1.58;nan
34328;BME280;20588;48.840;10.064;2023-01-25T08:23:43;97832.72;;;1.60;nan
34328;BME280;20588;48.840;10.064;2023-01-25T08:26:12;97836.16;;;1.59;nan
34328;BME280;20588;48.840;10.064;2023-01-25T08:28:38;97836.59;;;1.64;nan
34328;BME280;20588;48.840;10.064;2023-01-25T08:31:15;97848.09;;;1.68;nan
34328;BME280;20588;48.840;10.064;2023-01-25T08:33:43;97843.53;;;1.62;nan
34328;BME280;20588;48.840;10.064;2023-01-25T08:36:11;97839.25;;;1.63;nan
34328;BME280;20588;48.840;10.064;2023-01-25T08:38:38;97844.78;;;1.68;nan
34328;BME280;20588;48.840;10.064;2023-01-25T08:41:12;97846.22;;;1.81;nan
34328;BME280;20588;48.840;10.064;2023-01-25T08:43:39;97848.31;;;1.76;nan
34328;BME280;20588;48.840;10.064;2023-01-25T08:46:05;97844.41;;;1.72;nan
34328;BME280;20588;48.840;10.064;2023-01-25T08:48:32;97842.75;;;1.82;nan
34328;BME280;20588;48.840;10.064;2023-01-25T08:50:59;97845.41;;;1.81;nan
34328;BME280;20588;48.840;10.064;2023-01-25T08:53:27;97847.31;;;1.88;nan
34328;BME280;20588;48.840;10.064;2023-01-25T08:55:53;97828.75;;;1.88;nan
34328;BME280;20588;48.840;10.064;2023-01-25T08:58:19;97826.91;;;1.90;nan
34328;BME280;20588;48.840;10.064;2023-01-25T09:00:48;97824.44;;;2.00;nan
34328;BME280;20588;48.840;10.064;2023-01-25T09:03:14;97834.59;;;2.00;nan
34328;BME280;20588;48.840;10.064;2023-01-25T09:05:40;97831.69;;;2.04;nan
34328;BME280;20588;48.840;10.064;2023-01-25T09:08:08;97831.34;;;1.98;nan
34328;BME280;20588;48.840;10.064;2023-01-25T09:10:34;97816.16;;;1.77;nan
34328;BME280;20588;48.840;10.064;2023-01-25T09:13:00;97817.06;;;1.76;nan
34328;BME280;20588;48.840;10.064;2023-01-25T09:15:27;97815.28;;;1.88;nan
34328;BME280;20588;48.840;10.064;2023-01-25T09:17:54;97820.47;;;1.86;nan
34328;BME280;20588;48.840;10.064;2023-01-25T09:20:21;97814.78;;;1.94;nan
34328;BME280;20588;48.840;10.064;2023-01-25T09:22:47;97813.34;;;2.01;nan
34328;BME280;20588;48.840;10.064;2023-01-25T09:25:14;97815.06;;;2.00;nan
34328;BME280;20588;48.840;10.064;2023-01-25T09:27:40;97810.19;;;2.08;nan
34328;BME280;20588;48.840;10.064;2023-01-25T09:30:09;97801.59;;;2.00;nan
34328;BME280;20588;48.840;10.064;2023-01-25T09:32:36;97808.59;;;2.07;nan
34328;BME280;20588;48.840;10.064;2023-01-25T09:35:02;97801.13;;;2.15;nan
34328;BME280;20588;48.840;10.064;2023-01-25T09:37:29;97800.84;;;2.09;nan
34328;BME280;20588;48.840;10.064;2023-01-25T09:39:55;97802.13;;;2.03;nan
34328;BME280;20588;48.840;10.064;2023-01-25T09:42:35;97802.22;;;1.92;nan
34328;BME280;20588;48.840;10.064;2023-01-25T09:45:15;97792.31;;;1.89;nan
34328;BME280;20588;48.840;10.064;2023-01-25T09:48:09;97795.28;;;1.94;nan
34328;BME280;20588;48.840;10.064;2023-01-25T09:53:41;97791.56;;;1.98;nan
34328;BME280;20588;48.840;10.064;2023-01-25T09:56:31;97791.97;;;2.03;nan
34328;BME280;20588;48.840;10.064;2023-01-25T09:59:12;97797.06;;;2.03;nan
34328;BME280;20588;48.840;10.064;2023-01-25T10:01:48;97794.13;;;1.98;nan
34328;BME280;20588;48.840;10.064;2023-01-25T10:04:20;97794.78;;;2.00;nan
34328;BME280;20588;48.840;10.064;2023-01-25T10:06:52;97796.69;;;2.08;nan
34328;BME280;20588;48.840;10.064;2023-01-25T10:09:39;97788.66;;;2.03;nan
34328;BME280;20588;48.840;10.064;2023-01-25T10:12:23;97787.00;;;1.92;nan
34328;BME280;20588;48.840;10.064;2023-01-25T10:14:50;97786.63;;;1.97;nan
34328;BME280;20588;48.840;10.064;2023-01-25T10:17:38;97793.41;;;1.96;nan
34328;BME280;20588;48.840;10.064;2023-01-25T10:25:42;97783.22;;;2.17;nan
34328;BME280;20588;48.840;10.064;2023-01-25T10:28:22;97775.72;;;2.06;nan
34328;BME280;20588;48.840;10.064;2023-01-25T10:31:02;97788.41;;;2.06;nan
34328;BME280;20588;48.840;10.064;2023-01-25T10:33:31;97768.50;;;2.01;nan
34328;BME280;20588;48.840;10.064;2023-01-25T10:36:01;97769.97;;;2.04;nan
34328;BME280;20588;48.840;10.064;2023-01-25T10:38:37;97768.25;;;2.14;nan
34328;BME280;20588;48.840;10.064;2023-01-25T10:41:15;97768.81;;;2.17;nan
34328;BME280;20588;48.840;10.064;2023-01-25T10:43:43;97768.13;;;2.15;nan
34328;BME280;20588;48.840;10.064;2023-01-25T10:46:22;97766.72;;;2.22;nan
34328;BME280;20588;48.840;10.064;2023-01-25T10:48:49;97764.31;;;2.00;nan
34328;BME280;20588;48.840;10.064;2023-01-25T10:51:33;97753.88;;;1.94;nan
34328;BME280;20588;48.840;10.064;2023-01-25T10:54:04;97754.25;;;1.89;nan
34328;BME280;20588;48.840;10.064;2023-01-25T10:56:33;97755.06;;;1.89;nan
34328;BME280;20588;48.840;10.064;2023-01-25T10:59:26;97742.16;;;2.02;nan
34328;BME280;20588;48.840;10.064;2023-01-25T11:01:53;97744.91;;;1.89;nan
34328;BME280;20588;48.840;10.064;2023-01-25T11:04:36;97736.06;;;1.84;nan
34328;BME280;20588;48.840;10.064;2023-01-25T11:07:03;97745.84;;;1.88;nan
34328;BME280;20588;48.840;10.064;2023-01-25T11:09:33;97743.38;;;1.77;nan
34328;BME280;20588;48.840;10.064;2023-01-25T11:14:42;97734.94;;;1.98;nan
34328;BME280;20588;48.840;10.064;2023-01-25T11:17:38;97734.50;;;1.92;nan
34328;BME280;20588;48.840;10.064;2023-01-25T11:20:21;97728.97;;;2.08;nan
34328;BME280;20588;48.840;10.064;2023-01-25T11:22:52;97725.09;;;2.14;nan
34328;BME280;20588;48.840;10.064;2023-01-25T11:25:32;97737.72;;;2.25;nan
34328;BME280;20588;48.840;10.064;2023-01-25T11:28:14;97724.59;;;2.10;nan
34328;BME280;20588;48.840;10.064;2023-01-25T11:30:41;97721.09;;;2.11;nan
34328;BME280;20588;48.840;10.064;2023-01-25T11:33:11;97712.47;;;2.23;nan
34328;BME280;20588;48.840;10.064;2023-01-25T11:35:54;97716.50;;;2.26;nan
34328;BME280;20588;48.840;10.064;2023-01-25T11:38:24;97711.13;;;2.19;nan
34328;BME280;20588;48.840;10.064;2023-01-25T11:41:16;97704.28;;;2.20;nan
34328;BME280;20588;48.840;10.064;2023-01-25T11:46:36;97689.00;;;2.01;nan
34328;BME280;20588;48.840;10.064;2023-01-25T11:49:38;97676.06;;;2.04;nan
34328;BME280;20588;48.840;10.064;2023-01-25T11:52:37;97679.69;;;2.11;nan
34328;BME280;20588;48.840;10.064;2023-01-25T11:55:26;97670.50;;;2.19;nan
34328;BME280;20588;48.840;10.064;2023-01-25T11:58:54;97661.03;;;2.31;nan
34328;BME280;20588;48.840;10.064;2023-01-25T12:09:21;97639.06;;;2.11;nan
34328;BME280;20588;48.840;10.064;2023-01-25T12:14:54;97622.13;;;2.11;nan
34328;BME280;20588;48.840;10.064;2023-01-25T12:23:21;97609.22;;;2.43;nan
34328;BME280;20588;48.840;10.064;2023-01-25T12:26:44;97604.53;;;2.48;nan
34328;BME280;20588;48.840;10.064;2023-01-25T12:31:56;97597.59;;;2.50;nan
34328;BME280;20588;48.840;10.064;2023-01-25T12:34:36;97589.72;;;2.43;nan
34328;BME280;20588;48.840;10.064;2023-01-25T12:37:22;97583.84;;;2.33;nan
34328;BME280;20588;48.840;10.064;2023-01-25T12:40:13;97580.06;;;2.28;nan
34328;BME280;20588;48.840;10.064;2023-01-25T12:42:51;97566.31;;;2.30;nan
34328;BME280;20588;48.840;10.064;2023-01-25T12:45:24;97560.16;;;2.33;nan
34328;BME280;20588;48.840;10.064;2023-01-25T12:53:38;97548.00;;;2.46;nan
34328;BME280;20588;48.840;10.064;2023-01-25T12:56:08;97542.94;;;2.36;nan
34328;BME280;20588;48.840;10.064;2023-01-25T12:58:46;97539.19;;;2.40;nan
34328;BME280;20588;48.840;10.064;2023-01-25T13:01:30;97536.66;;;2.50;nan
34328;BME280;20588;48.840;10.064;2023-01-25T13:09:44;97533.97;;;2.42;nan
34328;BME280;20588;48.840;10.064;2023-01-25T13:12:15;97533.97;;;2.32;nan
34328;BME280;20588;48.840;10.064;2023-01-25T13:14:42;97525.31;;;2.35;nan
34328;BME280;20588;48.840;10.064;2023-01-25T13:17:18;97523.16;;;2.21;nan
34328;BME280;20588;48.840;10.064;2023-01-25T13:19:46;97529.94;;;2.11;nan
34328;BME280;20588;48.840;10.064;2023-01-25T13:22:13;97519.00;;;2.01;nan
34328;BME280;20588;48.840;10.064;2023-01-25T13:27:32;97504.59;;;2.01;nan
34328;BME280;20588;48.840;10.064;2023-01-25T13:30:25;97501.38;;;2.09;nan
34328;BME280;20588;48.840;10.064;2023-01-25T13:35:28;97505.94;;;2.24;nan
34328;BME280;20588;48.840;10.064;2023-01-25T13:41:12;97503.66;;;2.12;nan
34328;BME280;20588;48.840;10.064;2023-01-25T13:43:42;97500.97;;;2.04;nan
34328;BME280;20588;48.840;10.064;2023-01-25T13:46:13;97504.03;;;1.98;nan
34328;BME280;20588;48.840;10.064;2023-01-25T13:48:51;97500.44;;;1.91;nan
34328;BME280;20588;48.840;10.064;2023-01-25T13:51:19;97505.22;;;1.84;nan
34328;BME280;20588;48.840;10.064;2023-01-25T13:53:55;97501.63;;;1.77;nan
34328;BME280;20588;48.840;10.064;2023-01-25T13:56:39;97489.31;;;1.72;nan
34328;BME280;20588;48.840;10.064;2023-01-25T13:59:05;97495.56;;;1.59;nan
34328;BME280;20588;48.840;10.064;2023-01-25T14:01:34;97486.47;;;1.56;nan
34328;BME280;20588;48.840;10.064;2023-01-25T14:04:03;97485.94;;;1.62;nan
34328;BME280;20588;48.840;10.064;2023-01-25T14:06:33;97483.88;;;1.77;nan
34328;BME280;20588;48.840;10.064;2023-01-25T14:09:04;97484.25;;;1.72;nan
34328;BME280;20588;48.840;10.064;2023-01-25T14:11:33;97472.50;;;1.62;nan
34328;BME280;20588;48.840;10.064;2023-01-25T14:14:17;97473.81;;;1.56;nan
34328;BME280;20588;48.840;10.064;2023-01-25T14:16:44;97462.22;;;1.63;nan
34328;BME280;20588;48.840;10.064;2023-01-25T14:19:24;97467.56;;;1.60;nan
34328;BME280;20588;48.840;10.064;2023-01-25T14:22:30;97465.81;;;1.51;nan
34328;BME280;20588;48.840;10.064;2023-01-25T14:25:19;97464.28;;;1.39;nan
34328;BME280;20588;48.840;10.064;2023-01-25T14:27:46;97460.41;;;1.35;nan
34328;BME280;20588;48.840;10.064;2023-01-25T14:32:52;97460.41;;;1.35;nan
34328;BME280;20588;48.840;10.064;2023-01-25T14:38:00;97457.41;;;1.60;nan
34328;BME280;20588;48.840;10.064;2023-01-25T14:40:28;97462.84;;;1.46;nan
34328;BME280;20588;48.840;10.064;2023-01-25T14:42:55;97459.63;;;1.44;nan
34328;BME280;20588;48.840;10.064;2023-01-25T14:45:23;97463.53;;;1.58;nan
34328;BME280;20588;48.840;10.064;2023-01-25T14:47:52;97460.59;;;1.62;nan